Sally Ride — WSAF — position and weather

sailwx.info

Track history (hours):
 
Tides and Currents Weather Stations Pressure Air Temp Water Temp Dewpoint Dewpoint Depression Visibility Wind Speed Wind Dir Waves Ship Positions

Oceanographic research ship Sally Ride (United States)

Owner: REGENTS OF THE UNIVERSITY OF CALIFORNIA, Oakland, CA. More information available from US FCC via Universal Licensing System and Coast Guard Vessel Documentation Center.

Last reported at 2017-Mar-26 01:32 UTC. Time now 2017-Mar-26 01:45 UTC.
Position N 33°10' W 118°59'.

Length 72 m; draft 3 m.

Type: Other ship. MMSI: 369140000.

Date/timePositionNaut miles runAvg speedWind from/ knotsBaromVisibWave heightAir tempDewpointWater temp
2017-Mar-26 01:32N 33°10' W 118°59'0 0.0
2017-Mar-25 21:25N 33°10' W 118°58'0 0.2
2017-Mar-25 20:13N 33°10' W 118°58'0 0.0
2017-Mar-25 19:32N 33°10' W 118°58'0 0.0
2017-Mar-25 18:33N 33°10' W 118°58'0 0.0
2017-Mar-25 17:33N 33°10' W 118°58'0 0.0
2017-Mar-25 15:33N 33°10' W 118°58'0 0.0
2017-Mar-25 14:33N 33°10' W 118°58'0 0.0
2017-Mar-25 12:22N 33°10' W 118°58'514.4
2017-Mar-25 12:00N 33°06' W 118°54'5 3.7 310 / 131023.010.8 15.212.915.2
2017-Mar-25 10:33N 33°10' W 118°58'0 0.0
2017-Mar-25 09:25N 33°10' W 118°58'0 0.1
2017-Mar-25 08:28N 33°10' W 118°58'0 0.0
2017-Mar-25 07:31N 33°10' W 118°58'0 0.1
2017-Mar-25 06:33N 33°10' W 118°58'0 0.0
2017-Mar-25 05:33N 33°10' W 118°58'0 0.0
2017-Mar-25 04:33N 33°10' W 118°58'0 0.0
2017-Mar-25 03:33N 33°10' W 118°58'0 0.0
2017-Mar-25 02:33N 33°10' W 118°58'0 0.0
2017-Mar-25 01:33N 33°10' W 118°58'0 0.0
2017-Mar-25 00:32N 33°10' W 118°58'1 0.8
2017-Mar-24 23:33N 33°09' W 118°59'1 0.7
2017-Mar-24 22:33N 33°10' W 118°58'0 0.0
2017-Mar-24 21:33N 33°10' W 118°58'0 0.0
2017-Mar-24 20:33N 33°10' W 118°58'0 0.0
2017-Mar-24 19:33N 33°10' W 118°58'0 0.0
2017-Mar-24 18:33N 33°10' W 118°58'0 0.0
2017-Mar-24 17:33N 33°10' W 118°58'0 0.1
2017-Mar-24 16:33N 33°10' W 118°58'0 0.2
2017-Mar-24 15:33N 33°10' W 118°58'0 0.1
2017-Mar-24 14:33N 33°10' W 118°58'0 0.0
2017-Mar-24 13:33N 33°10' W 118°58'0 0.0
2017-Mar-24 12:33N 33°10' W 118°58'5 9.6
2017-Mar-24 12:00N 33°06' W 118°54'512.3 310 / 61025.510.8 14.010.615.0
2017-Mar-24 11:33N 33°10' W 118°58'0 0.1
2017-Mar-24 10:33N 33°10' W 118°58'0 0.0
2017-Mar-24 09:33N 33°10' W 118°58'0 0.0
2017-Mar-24 08:33N 33°10' W 118°58'0 0.1
2017-Mar-24 07:33N 33°10' W 118°58'0 0.0
2017-Mar-24 06:33N 33°10' W 118°58'0 0.0
2017-Mar-24 05:33N 33°10' W 118°58'0 0.0
2017-Mar-24 04:32N 33°10' W 118°58'0 0.0
2017-Mar-24 03:33N 33°10' W 118°58'0 0.0
2017-Mar-24 02:31N 33°10' W 118°58'0 0.0
2017-Mar-24 01:33N 33°10' W 118°58'0 0.0
2017-Mar-24 00:33N 33°10' W 118°58'2 2.4
2017-Mar-23 23:33N 33°09' W 119°01'3 2.8
2017-Mar-23 22:33N 33°07' W 119°03'5 5.0
2017-Mar-23 21:33N 33°10' W 118°58'0 0.0
2017-Mar-23 20:33N 33°10' W 118°58'0 0.4
2017-Mar-23 19:33N 33°10' W 118°58'0 0.4
2017-Mar-23 18:33N 33°10' W 118°57'5 8.3
2017-Mar-23 18:00N 33°06' W 118°54'4 7.1 310 / 281024.210.8 14.0 8.018.3
2017-Mar-23 17:28N 33°09' W 118°57'4 4.1
2017-Mar-23 16:33N 33°12' W 118°59'2 1.7
2017-Mar-23 15:33N 33°13' W 119°01'2 1.7
2017-Mar-23 14:16N 33°11' W 119°01'2 2.4
2017-Mar-23 13:33N 33°10' W 118°59'1 1.2
2017-Mar-23 12:31N 33°10' W 118°57'5 8.7
2017-Mar-23 12:00N 33°06' W 118°54'3 4.9 310 / 361020.110.8 13.2 8.815.1
2017-Mar-23 11:20N 33°09' W 118°56'3 4.4
2017-Mar-23 10:33N 33°10' W 118°60'1 1.1
2017-Mar-23 09:33N 33°11' W 119°00'2 0.8
2017-Mar-23 07:11N 33°10' W 118°59'0 0.0
2017-Mar-23 06:26N 33°10' W 118°59'0 0.0
2017-Mar-23 04:20N 33°10' W 118°59'0 0.0
2017-Mar-23 03:26N 33°10' W 118°59'0 0.0
2017-Mar-23 02:26N 33°10' W 118°59'1 0.5
2017-Mar-23 00:32N 33°11' W 118°58'1 0.3
2017-Mar-22 21:22N 33°11' W 118°57'2 2.8
2017-Mar-22 20:33N 33°12' W 118°60'2 0.8
2017-Mar-22 18:04N 33°11' W 118°57'685.8
2017-Mar-22 18:00N 33°06' W 118°54'6 4.0 290 / 121020.9 5.4 19.013.814.0
2017-Mar-22 16:32N 33°12' W 118°57'0 0.3
2017-Mar-22 15:32N 33°11' W 118°56'1 1.4
2017-Mar-22 14:33N 33°10' W 118°57'4 3.8
2017-Mar-22 13:33N 33°14' W 118°56'5 4.7
2017-Mar-22 12:33N 33°11' W 119°00'712.8
2017-Mar-22 12:00N 33°06' W 118°54'7 4.5 300 / 131019.0 5.4 14.813.016.0
2017-Mar-22 10:28N 33°13' W 118°54'3 0.2
2017-Mar-21 20:27N 33°12' W 118°58'2 2.5
2017-Mar-21 19:33N 33°11' W 118°56'0 0.0
2017-Mar-21 18:33N 33°11' W 118°56'0 0.0
2017-Mar-21 17:33N 33°11' W 118°56'0 0.0
2017-Mar-21 16:33N 33°11' W 118°56'1 0.9
2017-Mar-21 15:33N 33°10' W 118°56'0 0.1
2017-Mar-21 14:33N 33°10' W 118°56'3 2.9
2017-Mar-21 13:33N 33°12' W 118°58'2 2.0
2017-Mar-21 12:34N 33°14' W 118°57'3 4.7
2017-Mar-21 12:00N 33°12' W 118°54'3 7.0 130 / 81021.0 16.713.716.0
2017-Mar-21 11:33N 33°10' W 118°56'3 3.1
2017-Mar-21 10:32N 33°11' W 118°59'4 4.2
2017-Mar-21 09:33N 33°08' W 118°56'4 3.9
2017-Mar-21 08:31N 33°12' W 118°53'4 4.3
2017-Mar-21 07:33N 33°13' W 118°58'3 2.7
2017-Mar-21 06:33N 33°11' W 118°56'4 4.1
2017-Mar-21 05:33N 33°10' W 119°01'5 4.9
2017-Mar-21 04:33N 33°09' W 118°55'3 3.3
2017-Mar-21 03:33N 33°12' W 118°54'4 4.0
2017-Mar-21 02:31N 33°12' W 118°58'2 2.0
2017-Mar-21 01:33N 33°11' W 118°57'0 0.0
2017-Mar-21 00:33N 33°11' W 118°57'2 2.0
2017-Mar-20 23:31N 33°11' W 118°59'0 0.4
2017-Mar-20 22:27N 33°11' W 118°59'3 2.4
2017-Mar-20 21:22N 33°10' W 118°56'0 0.0
2017-Mar-20 20:33N 33°10' W 118°56'0 0.1
2017-Mar-20 19:33N 33°10' W 118°56'0 0.1
2017-Mar-20 17:21N 33°10' W 118°55'0 0.0
2017-Mar-20 16:09N 33°10' W 118°55'0 0.0
2017-Mar-20 15:33N 33°10' W 118°55'5 4.9
2017-Mar-20 14:33N 33°10' W 119°01'1 1.4
2017-Mar-20 13:33N 33°10' W 119°03'5 5.5
2017-Mar-20 12:34N 33°10' W 118°56'4 7.1
2017-Mar-20 12:00N 33°06' W 118°54'4 9.1 300 / 81020.110.8 15.011.315.7
2017-Mar-20 11:33N 33°10' W 118°55'0 0.0
2017-Mar-20 10:33N 33°10' W 118°55'0 0.0
2017-Mar-20 09:33N 33°10' W 118°55'0 0.0
2017-Mar-20 08:33N 33°10' W 118°55'0 0.0
2017-Mar-20 07:33N 33°10' W 118°55'0 0.0
2017-Mar-20 06:33N 33°10' W 118°55'0 0.0
2017-Mar-20 05:33N 33°10' W 118°55'0 0.0
2017-Mar-20 04:33N 33°10' W 118°55'0 0.1
2017-Mar-20 03:30N 33°10' W 118°55'1 1.0
2017-Mar-20 02:30N 33°09' W 118°56'1 1.3
2017-Mar-20 01:33N 33°10' W 118°57'2 1.7
2017-Mar-20 00:33N 33°12' W 118°56'2 1.8
2017-Mar-19 23:33N 33°12' W 118°58'2 2.0
2017-Mar-19 22:33N 33°10' W 118°57'0 0.1
2017-Mar-19 21:33N 33°10' W 118°57'0 0.1
2017-Mar-19 20:33N 33°10' W 118°57'0 0.0
2017-Mar-19 19:33N 33°10' W 118°57'0 0.0
2017-Mar-19 18:33N 33°10' W 118°57'0 0.0
2017-Mar-19 17:33N 33°10' W 118°57'1 0.7
2017-Mar-19 16:27N 33°10' W 118°58'2 2.0
2017-Mar-19 15:33N 33°10' W 118°56'0 0.0
2017-Mar-19 14:33N 33°10' W 118°56'0 0.0
2017-Mar-19 13:33N 33°10' W 118°56'0 0.0
2017-Mar-19 12:33N 33°10' W 118°56'0 0.0
2017-Mar-19 11:33N 33°10' W 118°56'0 0.0
2017-Mar-19 10:33N 33°10' W 118°56'0 0.0
2017-Mar-19 09:33N 33°10' W 118°56'0 0.0
2017-Mar-19 08:33N 33°10' W 118°56'0 0.0
2017-Mar-19 07:33N 33°10' W 118°56'0 0.0
2017-Mar-19 06:33N 33°10' W 118°56'0 0.0
2017-Mar-19 05:33N 33°10' W 118°56'0 0.0
2017-Mar-19 04:33N 33°10' W 118°56'3 2.7
2017-Mar-19 03:31N 33°12' W 118°58'1 1.1
2017-Mar-19 02:33N 33°11' W 118°58'4 3.8
2017-Mar-19 01:33N 33°08' W 118°55'4 4.3
2017-Mar-19 00:33N 33°12' W 118°57'2 2.2
2017-Mar-18 23:26N 33°10' W 118°57'0 0.0
2017-Mar-18 22:33N 33°10' W 118°57'1 1.2
2017-Mar-18 21:33N 33°10' W 118°55'2 1.5
2017-Mar-18 20:33N 33°11' W 118°57'0 0.0
2017-Mar-18 19:33N 33°11' W 118°57'1 1.0
2017-Mar-18 18:33N 33°11' W 118°55'2 1.7
2017-Mar-18 17:33N 33°10' W 118°57'0 0.5
2017-Mar-18 16:33N 33°11' W 118°57'1 0.9
2017-Mar-18 15:33N 33°12' W 118°58'2 1.5
2017-Mar-18 14:33N 33°11' W 118°56'1 0.7
2017-Mar-18 13:33N 33°11' W 118°56'1 0.5
2017-Mar-18 12:33N 33°10' W 118°55'4 7.7
2017-Mar-18 12:00N 33°06' W 118°54'4 9.9 1020.5 2.2 13.211.515.8
2017-Mar-18 11:33N 33°10' W 118°55'0 0.0
2017-Mar-18 10:33N 33°10' W 118°55'1 1.5
2017-Mar-18 09:33N 33°10' W 118°54'1110.8
2017-Mar-18 08:33N 33°07' W 118°41'1111.2
2017-Mar-18 07:33N 33°03' W 118°28'1111.3
2017-Mar-18 06:33N 32°59' W 118°16'1017.2
2017-Mar-18 06:00N 32°54' W 118°06'2 4.7 270 / 31020.3 5.4 14.012.212.0
2017-Mar-18 05:33N 32°54' W 118°04'1111.0
2017-Mar-18 04:33N 32°50' W 117°52'1111.1
2017-Mar-18 03:33N 32°45' W 117°39'1111.4
2017-Mar-18 02:33N 32°41' W 117°27'1110.9
2017-Mar-18 01:33N 32°37' W 117°15'5 5.2
2017-Mar-18 00:33N 32°42' W 117°14'0 0.0
2017-Mar-17 23:33N 32°42' W 117°14'0 0.0
2017-Mar-17 22:33N 32°42' W 117°14'0 0.0
2017-Mar-17 21:33N 32°42' W 117°14'0 0.0
2017-Mar-17 20:33N 32°42' W 117°14'0 0.0
2017-Mar-17 19:33N 32°42' W 117°14'4 1.0
2017-Mar-17 15:29N 32°42' W 117°10'4 3.9
2017-Mar-17 14:33N 32°42' W 117°14'0 0.3
2017-Mar-17 13:33N 32°42' W 117°14'0 0.0
2017-Mar-17 12:30N 32°42' W 117°14'0 0.0
2017-Mar-17 11:33N 32°42' W 117°14'0 0.0
2017-Mar-17 10:33N 32°42' W 117°14'0 0.0
2017-Mar-17 09:33N 32°42' W 117°14'0 0.0
2017-Mar-17 08:33N 32°42' W 117°14'0 0.0
2017-Mar-17 07:33N 32°42' W 117°14'0 0.0
2017-Mar-17 06:33N 32°42' W 117°14'0 0.0
2017-Mar-17 05:33N 32°42' W 117°14'0 0.0
2017-Mar-17 04:33N 32°42' W 117°14'0 0.0
2017-Mar-17 03:33N 32°42' W 117°14'0 0.0
2017-Mar-17 02:33N 32°42' W 117°14'0 0.0
2017-Mar-17 01:33N 32°42' W 117°14'0 0.0
2017-Mar-17 00:33N 32°42' W 117°14'0 0.0
2017-Mar-16 23:33N 32°42' W 117°14'0 0.0
2017-Mar-16 22:33N 32°42' W 117°14'0 0.0
2017-Mar-16 21:30N 32°42' W 117°14'0 0.0
2017-Mar-16 20:27N 32°42' W 117°14'0 0.0
2017-Mar-16 19:33N 32°42' W 117°14'0 0.0
2017-Mar-16 18:33N 32°42' W 117°14'0 0.0
2017-Mar-16 17:33N 32°42' W 117°14'0 0.0
2017-Mar-16 16:33N 32°42' W 117°14'0 0.0
2017-Mar-16 15:33N 32°42' W 117°14'0 0.0
2017-Mar-16 14:33N 32°42' W 117°14'0 0.0
2017-Mar-16 13:33N 32°42' W 117°14'0 0.0
2017-Mar-16 12:33N 32°42' W 117°14'0 0.0
2017-Mar-16 11:33N 32°42' W 117°14'0 0.0
2017-Mar-16 10:33N 32°42' W 117°14'0 0.0
2017-Mar-16 09:33N 32°42' W 117°14'0 0.0
2017-Mar-16 08:33N 32°42' W 117°14'0 0.0
2017-Mar-16 07:33N 32°42' W 117°14'0 0.0
2017-Mar-16 06:33N 32°42' W 117°14'0 0.0
2017-Mar-16 05:33N 32°42' W 117°14'0 0.0
2017-Mar-16 04:33N 32°42' W 117°14'0 0.0
2017-Mar-16 03:30N 32°42' W 117°14'0 0.0
2017-Mar-16 02:33N 32°42' W 117°14'0 0.0
2017-Mar-16 01:33N 32°42' W 117°14'  
Track history (hours):
 
Tides and Currents Weather Stations Pressure Air Temp Water Temp Dewpoint Dewpoint Depression Visibility Wind Speed Wind Dir Waves Ship Positions

Oceanographic research ship Sally Ride (United States)

Owner: REGENTS OF THE UNIVERSITY OF CALIFORNIA, Oakland, CA. More information available from US FCC via Universal Licensing System and Coast Guard Vessel Documentation Center.

Last reported at 2017-Mar-26 01:32 UTC. Time now 2017-Mar-26 01:45 UTC.
Position N 33°10' W 118°59'.

Length 72 m; draft 3 m.

Type: Other ship. MMSI: 369140000.

Date/timePositionNaut miles runAvg speedWind from/ knotsBaromVisibWave heightAir tempDewpointWater temp
2017-Mar-26 01:32N 33°10' W 118°59'0 0.0
2017-Mar-25 21:25N 33°10' W 118°58'0 0.2
2017-Mar-25 20:13N 33°10' W 118°58'0 0.0
2017-Mar-25 19:32N 33°10' W 118°58'0 0.0
2017-Mar-25 18:33N 33°10' W 118°58'0 0.0
2017-Mar-25 17:33N 33°10' W 118°58'0 0.0
2017-Mar-25 15:33N 33°10' W 118°58'0 0.0
2017-Mar-25 14:33N 33°10' W 118°58'0 0.0
2017-Mar-25 12:22N 33°10' W 118°58'514.4
2017-Mar-25 12:00N 33°06' W 118°54'5 3.7 310 / 131023.010.8 15.212.915.2
2017-Mar-25 10:33N 33°10' W 118°58'0 0.0
2017-Mar-25 09:25N 33°10' W 118°58'0 0.1
2017-Mar-25 08:28N 33°10' W 118°58'0 0.0
2017-Mar-25 07:31N 33°10' W 118°58'0 0.1
2017-Mar-25 06:33N 33°10' W 118°58'0 0.0
2017-Mar-25 05:33N 33°10' W 118°58'0 0.0
2017-Mar-25 04:33N 33°10' W 118°58'0 0.0
2017-Mar-25 03:33N 33°10' W 118°58'0 0.0
2017-Mar-25 02:33N 33°10' W 118°58'0 0.0
2017-Mar-25 01:33N 33°10' W 118°58'0 0.0
2017-Mar-25 00:32N 33°10' W 118°58'1 0.8
2017-Mar-24 23:33N 33°09' W 118°59'1 0.7
2017-Mar-24 22:33N 33°10' W 118°58'0 0.0
2017-Mar-24 21:33N 33°10' W 118°58'0 0.0
2017-Mar-24 20:33N 33°10' W 118°58'0 0.0
2017-Mar-24 19:33N 33°10' W 118°58'0 0.0
2017-Mar-24 18:33N 33°10' W 118°58'0 0.0
2017-Mar-24 17:33N 33°10' W 118°58'0 0.1
2017-Mar-24 16:33N 33°10' W 118°58'0 0.2
2017-Mar-24 15:33N 33°10' W 118°58'0 0.1
2017-Mar-24 14:33N 33°10' W 118°58'0 0.0
2017-Mar-24 13:33N 33°10' W 118°58'0 0.0
2017-Mar-24 12:33N 33°10' W 118°58'5 9.6
2017-Mar-24 12:00N 33°06' W 118°54'512.3 310 / 61025.510.8 14.010.615.0
2017-Mar-24 11:33N 33°10' W 118°58'0 0.1
2017-Mar-24 10:33N 33°10' W 118°58'0 0.0
2017-Mar-24 09:33N 33°10' W 118°58'0 0.0
2017-Mar-24 08:33N 33°10' W 118°58'0 0.1
2017-Mar-24 07:33N 33°10' W 118°58'0 0.0
2017-Mar-24 06:33N 33°10' W 118°58'0 0.0
2017-Mar-24 05:33N 33°10' W 118°58'0 0.0
2017-Mar-24 04:32N 33°10' W 118°58'0 0.0
2017-Mar-24 03:33N 33°10' W 118°58'0 0.0
2017-Mar-24 02:31N 33°10' W 118°58'0 0.0
2017-Mar-24 01:33N 33°10' W 118°58'0 0.0
2017-Mar-24 00:33N 33°10' W 118°58'2 2.4
2017-Mar-23 23:33N 33°09' W 119°01'3 2.8
2017-Mar-23 22:33N 33°07' W 119°03'5 5.0
2017-Mar-23 21:33N 33°10' W 118°58'0 0.0
2017-Mar-23 20:33N 33°10' W 118°58'0 0.4
2017-Mar-23 19:33N 33°10' W 118°58'0 0.4
2017-Mar-23 18:33N 33°10' W 118°57'5 8.3
2017-Mar-23 18:00N 33°06' W 118°54'4 7.1 310 / 281024.210.8 14.0 8.018.3
2017-Mar-23 17:28N 33°09' W 118°57'4 4.1
2017-Mar-23 16:33N 33°12' W 118°59'2 1.7
2017-Mar-23 15:33N 33°13' W 119°01'2 1.7
2017-Mar-23 14:16N 33°11' W 119°01'2 2.4
2017-Mar-23 13:33N 33°10' W 118°59'1 1.2
2017-Mar-23 12:31N 33°10' W 118°57'5 8.7
2017-Mar-23 12:00N 33°06' W 118°54'3 4.9 310 / 361020.110.8 13.2 8.815.1
2017-Mar-23 11:20N 33°09' W 118°56'3 4.4
2017-Mar-23 10:33N 33°10' W 118°60'1 1.1
2017-Mar-23 09:33N 33°11' W 119°00'2 0.8
2017-Mar-23 07:11N 33°10' W 118°59'0 0.0
2017-Mar-23 06:26N 33°10' W 118°59'0 0.0
2017-Mar-23 04:20N 33°10' W 118°59'0 0.0
2017-Mar-23 03:26N 33°10' W 118°59'0 0.0
2017-Mar-23 02:26N 33°10' W 118°59'1 0.5
2017-Mar-23 00:32N 33°11' W 118°58'1 0.3
2017-Mar-22 21:22N 33°11' W 118°57'2 2.8
2017-Mar-22 20:33N 33°12' W 118°60'2 0.8
2017-Mar-22 18:04N 33°11' W 118°57'685.8
2017-Mar-22 18:00N 33°06' W 118°54'6 4.0 290 / 121020.9 5.4 19.013.814.0
2017-Mar-22 16:32N 33°12' W 118°57'0 0.3
2017-Mar-22 15:32N 33°11' W 118°56'1 1.4
2017-Mar-22 14:33N 33°10' W 118°57'4 3.8
2017-Mar-22 13:33N 33°14' W 118°56'5 4.7
2017-Mar-22 12:33N 33°11' W 119°00'712.8
2017-Mar-22 12:00N 33°06' W 118°54'7 4.5 300 / 131019.0 5.4 14.813.016.0
2017-Mar-22 10:28N 33°13' W 118°54'3 0.2
2017-Mar-21 20:27N 33°12' W 118°58'2 2.5
2017-Mar-21 19:33N 33°11' W 118°56'0 0.0
2017-Mar-21 18:33N 33°11' W 118°56'0 0.0
2017-Mar-21 17:33N 33°11' W 118°56'0 0.0
2017-Mar-21 16:33N 33°11' W 118°56'1 0.9
2017-Mar-21 15:33N 33°10' W 118°56'0 0.1
2017-Mar-21 14:33N 33°10' W 118°56'3 2.9
2017-Mar-21 13:33N 33°12' W 118°58'2 2.0
2017-Mar-21 12:34N 33°14' W 118°57'3 4.7
2017-Mar-21 12:00N 33°12' W 118°54'3 7.0 130 / 81021.0 16.713.716.0
2017-Mar-21 11:33N 33°10' W 118°56'3 3.1
2017-Mar-21 10:32N 33°11' W 118°59'4 4.2
2017-Mar-21 09:33N 33°08' W 118°56'4 3.9
2017-Mar-21 08:31N 33°12' W 118°53'4 4.3
2017-Mar-21 07:33N 33°13' W 118°58'3 2.7
2017-Mar-21 06:33N 33°11' W 118°56'4 4.1
2017-Mar-21 05:33N 33°10' W 119°01'5 4.9
2017-Mar-21 04:33N 33°09' W 118°55'3 3.3
2017-Mar-21 03:33N 33°12' W 118°54'4 4.0
2017-Mar-21 02:31N 33°12' W 118°58'2 2.0
2017-Mar-21 01:33N 33°11' W 118°57'0 0.0
2017-Mar-21 00:33N 33°11' W 118°57'2 2.0
2017-Mar-20 23:31N 33°11' W 118°59'0 0.4
2017-Mar-20 22:27N 33°11' W 118°59'3 2.4
2017-Mar-20 21:22N 33°10' W 118°56'0 0.0
2017-Mar-20 20:33N 33°10' W 118°56'0 0.1
2017-Mar-20 19:33N 33°10' W 118°56'0 0.1
2017-Mar-20 17:21N 33°10' W 118°55'0 0.0
2017-Mar-20 16:09N 33°10' W 118°55'0 0.0
2017-Mar-20 15:33N 33°10' W 118°55'5 4.9
2017-Mar-20 14:33N 33°10' W 119°01'1 1.4
2017-Mar-20 13:33N 33°10' W 119°03'5 5.5
2017-Mar-20 12:34N 33°10' W 118°56'4 7.1
2017-Mar-20 12:00N 33°06' W 118°54'4 9.1 300 / 81020.110.8 15.011.315.7
2017-Mar-20 11:33N 33°10' W 118°55'0 0.0
2017-Mar-20 10:33N 33°10' W 118°55'0 0.0
2017-Mar-20 09:33N 33°10' W 118°55'0 0.0
2017-Mar-20 08:33N 33°10' W 118°55'0 0.0
2017-Mar-20 07:33N 33°10' W 118°55'0 0.0
2017-Mar-20 06:33N 33°10' W 118°55'0 0.0
2017-Mar-20 05:33N 33°10' W 118°55'0 0.0
2017-Mar-20 04:33N 33°10' W 118°55'0 0.1
2017-Mar-20 03:30N 33°10' W 118°55'1 1.0
2017-Mar-20 02:30N 33°09' W 118°56'1 1.3
2017-Mar-20 01:33N 33°10' W 118°57'2 1.7
2017-Mar-20 00:33N 33°12' W 118°56'2 1.8
2017-Mar-19 23:33N 33°12' W 118°58'2 2.0
2017-Mar-19 22:33N 33°10' W 118°57'0 0.1
2017-Mar-19 21:33N 33°10' W 118°57'0 0.1
2017-Mar-19 20:33N 33°10' W 118°57'0 0.0
2017-Mar-19 19:33N 33°10' W 118°57'0 0.0
2017-Mar-19 18:33N 33°10' W 118°57'0 0.0
2017-Mar-19 17:33N 33°10' W 118°57'1 0.7
2017-Mar-19 16:27N 33°10' W 118°58'2 2.0
2017-Mar-19 15:33N 33°10' W 118°56'0 0.0
2017-Mar-19 14:33N 33°10' W 118°56'0 0.0
2017-Mar-19 13:33N 33°10' W 118°56'0 0.0
2017-Mar-19 12:33N 33°10' W 118°56'0 0.0
2017-Mar-19 11:33N 33°10' W 118°56'0 0.0
2017-Mar-19 10:33N 33°10' W 118°56'0 0.0
2017-Mar-19 09:33N 33°10' W 118°56'0 0.0
2017-Mar-19 08:33N 33°10' W 118°56'0 0.0
2017-Mar-19 07:33N 33°10' W 118°56'0 0.0
2017-Mar-19 06:33N 33°10' W 118°56'0 0.0
2017-Mar-19 05:33N 33°10' W 118°56'0 0.0
2017-Mar-19 04:33N 33°10' W 118°56'3 2.7
2017-Mar-19 03:31N 33°12' W 118°58'1 1.1
2017-Mar-19 02:33N 33°11' W 118°58'4 3.8
2017-Mar-19 01:33N 33°08' W 118°55'4 4.3
2017-Mar-19 00:33N 33°12' W 118°57'2 2.2
2017-Mar-18 23:26N 33°10' W 118°57'0 0.0
2017-Mar-18 22:33N 33°10' W 118°57'1 1.2
2017-Mar-18 21:33N 33°10' W 118°55'2 1.5
2017-Mar-18 20:33N 33°11' W 118°57'0 0.0
2017-Mar-18 19:33N 33°11' W 118°57'1 1.0
2017-Mar-18 18:33N 33°11' W 118°55'2 1.7
2017-Mar-18 17:33N 33°10' W 118°57'0 0.5
2017-Mar-18 16:33N 33°11' W 118°57'1 0.9
2017-Mar-18 15:33N 33°12' W 118°58'2 1.5
2017-Mar-18 14:33N 33°11' W 118°56'1 0.7
2017-Mar-18 13:33N 33°11' W 118°56'1 0.5
2017-Mar-18 12:33N 33°10' W 118°55'4 7.7
2017-Mar-18 12:00N 33°06' W 118°54'4 9.9 1020.5 2.2 13.211.515.8
2017-Mar-18 11:33N 33°10' W 118°55'0 0.0
2017-Mar-18 10:33N 33°10' W 118°55'1 1.5
2017-Mar-18 09:33N 33°10' W 118°54'1110.8
2017-Mar-18 08:33N 33°07' W 118°41'1111.2
2017-Mar-18 07:33N 33°03' W 118°28'1111.3
2017-Mar-18 06:33N 32°59' W 118°16'1017.2
2017-Mar-18 06:00N 32°54' W 118°06'2 4.7 270 / 31020.3 5.4 14.012.212.0
2017-Mar-18 05:33N 32°54' W 118°04'1111.0
2017-Mar-18 04:33N 32°50' W 117°52'1111.1
2017-Mar-18 03:33N 32°45' W 117°39'1111.4
2017-Mar-18 02:33N 32°41' W 117°27'1110.9
2017-Mar-18 01:33N 32°37' W 117°15'5 5.2
2017-Mar-18 00:33N 32°42' W 117°14'0 0.0
2017-Mar-17 23:33N 32°42' W 117°14'0 0.0
2017-Mar-17 22:33N 32°42' W 117°14'0 0.0
2017-Mar-17 21:33N 32°42' W 117°14'0 0.0
2017-Mar-17 20:33N 32°42' W 117°14'0 0.0
2017-Mar-17 19:33N 32°42' W 117°14'4 1.0
2017-Mar-17 15:29N 32°42' W 117°10'4 3.9
2017-Mar-17 14:33N 32°42' W 117°14'0 0.3
2017-Mar-17 13:33N 32°42' W 117°14'0 0.0
2017-Mar-17 12:30N 32°42' W 117°14'0 0.0
2017-Mar-17 11:33N 32°42' W 117°14'0 0.0
2017-Mar-17 10:33N 32°42' W 117°14'0 0.0
2017-Mar-17 09:33N 32°42' W 117°14'0 0.0
2017-Mar-17 08:33N 32°42' W 117°14'0 0.0
2017-Mar-17 07:33N 32°42' W 117°14'0 0.0
2017-Mar-17 06:33N 32°42' W 117°14'0 0.0
2017-Mar-17 05:33N 32°42' W 117°14'0 0.0
2017-Mar-17 04:33N 32°42' W 117°14'0 0.0
2017-Mar-17 03:33N 32°42' W 117°14'0 0.0
2017-Mar-17 02:33N 32°42' W 117°14'0 0.0
2017-Mar-17 01:33N 32°42' W 117°14'0 0.0
2017-Mar-17 00:33N 32°42' W 117°14'0 0.0
2017-Mar-16 23:33N 32°42' W 117°14'0 0.0
2017-Mar-16 22:33N 32°42' W 117°14'0 0.0
2017-Mar-16 21:30N 32°42' W 117°14'0 0.0
2017-Mar-16 20:27N 32°42' W 117°14'0 0.0
2017-Mar-16 19:33N 32°42' W 117°14'0 0.0
2017-Mar-16 18:33N 32°42' W 117°14'0 0.0
2017-Mar-16 17:33N 32°42' W 117°14'0 0.0
2017-Mar-16 16:33N 32°42' W 117°14'0 0.0
2017-Mar-16 15:33N 32°42' W 117°14'0 0.0
2017-Mar-16 14:33N 32°42' W 117°14'0 0.0
2017-Mar-16 13:33N 32°42' W 117°14'0 0.0
2017-Mar-16 12:33N 32°42' W 117°14'0 0.0
2017-Mar-16 11:33N 32°42' W 117°14'0 0.0
2017-Mar-16 10:33N 32°42' W 117°14'0 0.0
2017-Mar-16 09:33N 32°42' W 117°14'0 0.0
2017-Mar-16 08:33N 32°42' W 117°14'0 0.0
2017-Mar-16 07:33N 32°42' W 117°14'0 0.0
2017-Mar-16 06:33N 32°42' W 117°14'0 0.0
2017-Mar-16 05:33N 32°42' W 117°14'0 0.0
2017-Mar-16 04:33N 32°42' W 117°14'0 0.0
2017-Mar-16 03:30N 32°42' W 117°14'0 0.0
2017-Mar-16 02:33N 32°42' W 117°14'0 0.0
2017-Mar-16 01:33N 32°42' W 117°14'  

Dump ship's entire track history